createdAt,value
2017-11-22T00:00:32.504Z,0.00
2017-11-22T00:01:32.516Z,0.00
2017-11-22T00:03:25.922Z,0.00
2017-11-22T00:04:25.908Z,0.00
2017-11-22T00:06:19.288Z,0.00
2017-11-22T00:07:19.282Z,0.00
2017-11-22T00:09:12.692Z,0.00
2017-11-22T00:10:12.676Z,0.00
2017-11-22T00:12:06.049Z,0.00
2017-11-22T00:13:06.047Z,0.00
2017-11-22T00:14:59.452Z,0.00
2017-11-22T00:15:59.445Z,0.00
2017-11-22T00:17:52.817Z,0.00
2017-11-22T00:18:52.823Z,0.00
2017-11-22T00:20:46.299Z,0.00
2017-11-22T00:21:46.276Z,0.00
2017-11-22T00:23:39.672Z,0.00
2017-11-22T00:24:39.670Z,0.00
2017-11-22T00:26:33.068Z,0.00
2017-11-22T00:27:33.061Z,0.00
2017-11-22T00:29:26.428Z,0.00
2017-11-22T00:30:26.467Z,0.00
2017-11-22T00:32:19.841Z,0.00
2017-11-22T00:33:19.815Z,0.00
2017-11-22T00:35:13.206Z,0.00
2017-11-22T00:36:13.204Z,0.00
2017-11-22T00:38:06.607Z,0.00
2017-11-22T00:39:06.594Z,0.00
2017-11-22T00:40:59.970Z,0.00
2017-11-22T00:41:59.973Z,0.00
2017-11-22T00:43:53.390Z,0.00
2017-11-22T00:44:53.358Z,0.00
2017-11-22T00:46:46.757Z,0.00
2017-11-22T00:47:46.739Z,0.00
2017-11-22T00:49:40.143Z,0.00
2017-11-22T00:50:40.138Z,0.00
2017-11-22T00:52:33.505Z,0.00
2017-11-22T00:53:33.518Z,0.00
2017-11-22T00:55:26.910Z,0.00
2017-11-22T00:56:26.891Z,0.00
2017-11-22T00:58:20.294Z,0.00
2017-11-22T00:59:20.286Z,0.00
2017-11-22T01:01:13.706Z,0.00
2017-11-22T01:02:13.694Z,0.00
2017-11-22T01:04:07.070Z,0.00
2017-11-22T01:05:07.082Z,0.00
2017-11-22T01:07:00.468Z,0.00
2017-11-22T01:08:00.472Z,0.00
2017-11-22T01:09:53.836Z,0.00
2017-11-22T01:10:53.845Z,0.00
2017-11-22T01:12:47.257Z,0.00
2017-11-22T01:13:47.234Z,0.00
2017-11-22T01:15:40.603Z,0.00
2017-11-22T01:16:40.604Z,0.00
2017-11-22T01:18:34.005Z,0.00
2017-11-22T01:19:33.993Z,0.00
2017-11-22T01:21:27.371Z,0.00
2017-11-22T01:22:27.387Z,0.00
2017-11-22T01:24:20.780Z,0.00
2017-11-22T01:25:20.775Z,0.00
2017-11-22T01:27:14.156Z,0.00
2017-11-22T01:28:14.145Z,0.00
2017-11-22T01:30:07.550Z,0.00
2017-11-22T01:31:07.541Z,0.00
2017-11-22T01:33:00.918Z,0.00
2017-11-22T01:34:00.917Z,0.00
2017-11-22T01:35:54.319Z,0.00
2017-11-22T01:36:54.321Z,0.00
2017-11-22T01:38:47.695Z,0.00
2017-11-22T01:39:47.704Z,0.00
2017-11-22T01:41:41.098Z,0.00
2017-11-22T01:42:41.082Z,0.00
2017-11-22T01:44:34.465Z,0.00
2017-11-22T01:45:34.485Z,0.00
2017-11-22T01:47:27.872Z,0.00
2017-11-22T01:48:27.852Z,0.00
2017-11-22T01:50:21.241Z,0.00
2017-11-22T01:51:21.240Z,0.00
2017-11-22T01:53:14.667Z,0.00
2017-11-22T01:54:14.633Z,0.00
2017-11-22T01:56:08.038Z,0.00
2017-11-22T01:57:08.020Z,0.00
2017-11-22T01:59:01.404Z,0.00
2017-11-22T02:00:01.424Z,0.00
2017-11-22T02:01:54.829Z,0.00
2017-11-22T02:02:54.807Z,0.00
2017-11-22T02:04:48.173Z,0.00
2017-11-22T02:05:48.202Z,0.00
2017-11-22T02:07:41.576Z,0.00
2017-11-22T02:08:41.562Z,0.00
2017-11-22T02:10:34.945Z,0.00
2017-11-22T02:11:34.945Z,0.00
2017-11-22T02:13:28.354Z,0.00
2017-11-22T02:14:28.332Z,0.00
2017-11-22T02:16:21.718Z,0.00
2017-11-22T02:17:21.744Z,0.00
2017-11-22T02:19:15.123Z,0.00
2017-11-22T02:20:15.127Z,0.00
2017-11-22T02:22:08.492Z,0.00
2017-11-22T02:23:08.493Z,0.00
2017-11-22T02:25:01.901Z,0.00
2017-11-22T02:26:01.875Z,0.00
2017-11-22T02:27:55.258Z,0.00
2017-11-22T02:28:55.265Z,0.00
2017-11-22T02:30:48.663Z,0.00
2017-11-22T02:31:48.649Z,0.00
2017-11-22T02:33:42.025Z,0.00
2017-11-22T02:34:42.042Z,0.00
2017-11-22T02:36:35.428Z,0.00
2017-11-22T02:37:35.411Z,0.00
2017-11-22T02:39:28.811Z,0.00
2017-11-22T02:40:28.798Z,0.00
2017-11-22T02:42:22.200Z,0.00
2017-11-22T02:43:22.180Z,0.00
2017-11-22T02:45:15.567Z,0.00
2017-11-22T02:46:15.566Z,0.00
2017-11-22T02:48:08.982Z,0.00
2017-11-22T02:49:08.951Z,0.00
2017-11-22T02:51:02.333Z,0.00
2017-11-22T02:52:02.349Z,0.00
2017-11-22T02:53:55.741Z,0.00
2017-11-22T02:54:55.745Z,0.00
2017-11-22T02:56:49.105Z,0.00
2017-11-22T02:57:49.106Z,0.00
2017-11-22T02:59:42.524Z,0.00
2017-11-22T03:00:42.499Z,0.00
2017-11-22T03:02:35.913Z,0.00
2017-11-22T03:03:35.889Z,0.00
2017-11-22T03:05:29.269Z,0.00
2017-11-22T03:06:29.278Z,0.00
2017-11-22T03:08:22.691Z,0.00
2017-11-22T03:09:22.668Z,0.00
2017-11-22T03:11:16.078Z,0.00
2017-11-22T03:12:16.069Z,0.00
2017-11-22T03:14:09.469Z,0.00
2017-11-22T03:15:09.456Z,0.00
2017-11-22T03:17:02.838Z,0.00
2017-11-22T03:18:02.835Z,0.00
2017-11-22T03:19:56.273Z,0.00
2017-11-22T03:20:56.249Z,0.00
2017-11-22T03:22:49.640Z,0.00
2017-11-22T03:23:49.642Z,0.00
2017-11-22T03:25:43.043Z,0.00
2017-11-22T03:26:43.033Z,0.00
2017-11-22T03:28:36.409Z,0.00
2017-11-22T03:29:36.413Z,0.00
2017-11-22T03:31:29.804Z,0.00
2017-11-22T03:32:29.790Z,0.00
2017-11-22T03:34:23.174Z,0.00
2017-11-22T03:35:23.175Z,0.00
2017-11-22T03:37:16.574Z,0.00
2017-11-22T03:38:16.558Z,0.00
2017-11-22T03:40:09.943Z,0.00
2017-11-22T03:41:09.944Z,0.00
2017-11-22T03:43:03.347Z,0.00
2017-11-22T03:44:03.335Z,0.00
2017-11-22T03:45:56.766Z,0.00
2017-11-22T03:46:56.740Z,0.00
2017-11-22T03:48:50.105Z,0.00
2017-11-22T03:49:50.109Z,0.00
2017-11-22T03:51:43.505Z,0.00
2017-11-22T03:52:43.491Z,0.00
2017-11-22T03:54:36.876Z,0.00
2017-11-22T03:55:36.873Z,0.00
2017-11-22T03:57:30.273Z,0.00
2017-11-22T03:58:30.257Z,0.00
2017-11-22T04:00:23.646Z,0.00
2017-11-22T04:01:23.645Z,0.00
2017-11-22T04:03:17.043Z,0.00
2017-11-22T04:04:17.028Z,0.00
2017-11-22T04:06:10.433Z,0.00
2017-11-22T04:07:10.413Z,0.00
2017-11-22T04:09:03.812Z,0.00
2017-11-22T04:10:03.789Z,0.00
2017-11-22T04:11:57.182Z,0.00
2017-11-22T04:12:57.180Z,0.00
2017-11-22T04:14:50.583Z,0.00
2017-11-22T04:15:50.565Z,0.00
2017-11-22T04:17:43.987Z,0.00
2017-11-22T04:18:43.949Z,0.00
2017-11-22T04:20:37.336Z,0.00
2017-11-22T04:21:37.337Z,0.00
2017-11-22T04:23:30.735Z,0.00
2017-11-22T04:24:30.731Z,0.00
2017-11-22T04:26:24.094Z,0.00
2017-11-22T04:27:24.098Z,0.00
2017-11-22T04:29:17.613Z,0.00
2017-11-22T04:30:17.611Z,0.00
2017-11-22T04:32:10.965Z,0.00
2017-11-22T04:33:10.978Z,0.00
2017-11-22T04:35:04.374Z,0.00
2017-11-22T04:36:04.374Z,0.00
2017-11-22T04:37:58.767Z,0.00
2017-11-22T04:38:58.780Z,0.00
2017-11-22T04:40:52.165Z,0.00
2017-11-22T04:41:52.134Z,0.00
2017-11-22T04:43:45.540Z,0.00
2017-11-22T04:44:45.521Z,0.00
2017-11-22T04:46:38.936Z,0.00
2017-11-22T04:47:38.873Z,0.00
2017-11-22T04:49:32.291Z,0.00
2017-11-22T04:50:32.320Z,0.00
2017-11-22T04:52:25.730Z,0.00
2017-11-22T04:53:25.697Z,0.00
2017-11-22T04:55:19.067Z,0.00
2017-11-22T04:56:19.075Z,0.00
2017-11-22T04:58:13.095Z,0.00
2017-11-22T04:59:12.518Z,0.00
2017-11-22T05:01:05.873Z,0.00
2017-11-22T05:02:05.949Z,0.00
2017-11-22T05:03:59.311Z,0.00
2017-11-22T05:04:59.288Z,0.00
2017-11-22T05:06:52.802Z,0.00
2017-11-22T05:07:52.729Z,0.00
2017-11-22T05:09:46.108Z,0.00
2017-11-22T05:10:46.078Z,0.00
2017-11-22T05:12:39.454Z,0.00
2017-11-22T05:13:39.418Z,0.00
2017-11-22T05:15:32.803Z,0.00
2017-11-22T05:16:32.845Z,0.00
2017-11-22T05:18:26.207Z,0.00
2017-11-22T05:19:26.239Z,0.00
2017-11-22T05:21:19.576Z,0.00
2017-11-22T05:22:19.597Z,0.00
2017-11-22T05:24:13.013Z,0.00
2017-11-22T05:25:13.017Z,0.00
2017-11-22T05:27:07.343Z,0.00
2017-11-22T05:28:07.374Z,0.00
2017-11-22T05:30:00.766Z,0.00
2017-11-22T05:31:00.775Z,0.00
2017-11-22T05:32:54.115Z,0.00
2017-11-22T05:33:54.123Z,0.00
2017-11-22T05:35:48.543Z,0.00
2017-11-22T05:36:48.554Z,0.00
2017-11-22T05:38:42.932Z,0.00
2017-11-22T05:39:42.900Z,0.00
2017-11-22T05:41:36.294Z,0.00
2017-11-22T05:42:36.287Z,0.00
2017-11-22T05:44:29.692Z,0.00
2017-11-22T05:45:29.689Z,0.00
2017-11-22T05:47:23.048Z,0.00
2017-11-22T05:48:23.068Z,0.00
2017-11-22T05:50:16.461Z,0.00
2017-11-22T05:51:16.409Z,0.00
2017-11-22T05:53:09.790Z,0.00
2017-11-22T05:54:09.825Z,0.00
2017-11-22T05:56:03.239Z,0.00
2017-11-22T05:57:03.215Z,0.00
2017-11-22T05:58:56.621Z,0.00
2017-11-22T05:59:56.640Z,0.00
2017-11-22T06:01:49.979Z,0.00
2017-11-22T06:02:50.096Z,0.00
2017-11-22T06:04:43.395Z,0.00
2017-11-22T06:05:43.375Z,0.00
2017-11-22T06:07:36.721Z,0.00
2017-11-22T06:08:36.743Z,0.00
2017-11-22T06:10:30.108Z,4.00
2017-11-22T06:11:30.106Z,4.00
2017-11-22T06:13:23.534Z,0.00
2017-11-22T06:14:23.528Z,4.00
2017-11-22T06:16:16.892Z,4.00
2017-11-22T06:17:16.906Z,8.00
2017-11-22T06:19:10.291Z,8.00
2017-11-22T06:20:10.326Z,12.00
2017-11-22T06:22:03.645Z,12.00
2017-11-22T06:23:03.676Z,16.00
2017-11-22T06:24:58.033Z,24.00
2017-11-22T06:25:58.046Z,24.00
2017-11-22T06:27:51.480Z,32.00
2017-11-22T06:28:51.450Z,40.00
2017-11-22T06:30:44.771Z,48.00
2017-11-22T06:31:44.817Z,56.00
2017-11-22T06:33:39.217Z,68.00
2017-11-22T06:34:39.196Z,76.00
2017-11-22T06:36:32.543Z,92.00
2017-11-22T06:37:32.578Z,104.00
2017-11-22T06:39:25.982Z,128.00
2017-11-22T06:40:25.967Z,140.00
2017-11-22T06:42:19.373Z,172.00
2017-11-22T06:43:19.358Z,192.00
2017-11-22T06:45:12.734Z,228.00
2017-11-22T06:46:12.741Z,252.00
2017-11-22T06:48:06.146Z,284.00
2017-11-22T06:49:06.148Z,296.00
2017-11-22T06:50:59.511Z,316.00
2017-11-22T06:51:59.569Z,332.00
2017-11-22T06:53:52.914Z,364.00
2017-11-22T06:54:52.885Z,384.00
2017-11-22T06:56:47.316Z,432.00
2017-11-22T06:57:47.319Z,456.00
2017-11-22T06:59:40.731Z,480.00
2017-11-22T07:00:40.706Z,496.00
2017-11-22T07:02:34.064Z,528.00
2017-11-22T07:03:34.107Z,548.00
2017-11-22T07:05:27.454Z,588.00
2017-11-22T07:06:27.474Z,608.00
2017-11-22T07:08:20.853Z,652.00
2017-11-22T07:09:20.865Z,668.00
2017-11-22T07:11:14.215Z,688.00
2017-11-22T07:12:14.234Z,700.00
2017-11-22T07:14:07.642Z,736.00
2017-11-22T07:15:07.604Z,756.00
2017-11-22T07:17:01.023Z,784.00
2017-11-22T07:18:01.002Z,800.00
2017-11-22T07:19:54.383Z,828.00
2017-11-22T07:20:54.377Z,848.00
2017-11-22T07:22:47.772Z,884.00
2017-11-22T07:23:47.817Z,896.00
2017-11-22T07:25:41.143Z,924.00
2017-11-22T07:26:41.191Z,936.00
2017-11-22T07:28:35.583Z,972.00
2017-11-22T07:29:35.566Z,996.00
2017-11-22T07:31:28.912Z,996.00
2017-11-22T07:32:28.930Z,996.00
2017-11-22T07:34:23.336Z,1012.00
2017-11-22T07:35:23.331Z,1024.00
2017-11-22T07:37:16.718Z,1072.00
2017-11-22T07:38:16.755Z,1084.00
2017-11-22T07:40:10.096Z,1004.00
2017-11-22T07:41:10.112Z,1004.00
2017-11-22T07:43:03.488Z,1028.00
2017-11-22T07:44:03.521Z,1044.00
2017-11-22T07:45:56.847Z,1040.00
2017-11-22T07:46:56.876Z,1056.00
2017-11-22T07:48:50.246Z,1048.00
2017-11-22T07:49:50.244Z,1048.00
2017-11-22T07:51:43.621Z,1072.00
2017-11-22T07:52:43.623Z,1068.00
2017-11-22T07:54:37.012Z,1076.00
2017-11-22T07:55:37.036Z,1108.00
2017-11-22T07:57:30.375Z,1196.00
2017-11-22T07:58:30.468Z,1204.00
2017-11-22T08:00:23.862Z,1228.00
2017-11-22T08:01:23.822Z,1252.00
2017-11-22T08:03:17.140Z,1308.00
2017-11-22T08:04:17.143Z,1344.00
2017-11-22T08:06:10.663Z,1380.00
2017-11-22T08:07:10.604Z,1404.00
2017-11-22T08:09:03.960Z,1428.00
2017-11-22T08:10:03.965Z,1436.00
2017-11-22T08:11:58.363Z,1492.00
2017-11-22T08:12:58.353Z,1504.00
2017-11-22T08:14:51.771Z,1520.00
2017-11-22T08:15:51.737Z,1520.00
2017-11-22T08:17:45.144Z,1528.00
2017-11-22T08:18:45.156Z,1528.00
2017-11-22T08:20:38.507Z,1532.00
2017-11-22T08:21:38.512Z,1536.00
2017-11-22T08:23:31.866Z,1532.00
2017-11-22T08:24:31.866Z,1516.00
2017-11-22T08:26:25.271Z,1532.00
2017-11-22T08:27:25.270Z,1536.00
2017-11-22T08:29:18.653Z,1568.00
2017-11-22T08:30:18.651Z,1556.00
2017-11-22T08:32:12.031Z,1544.00
2017-11-22T08:33:12.021Z,1652.00
2017-11-22T08:35:05.438Z,1656.00
2017-11-22T08:36:05.415Z,1636.00
2017-11-22T08:37:58.804Z,1696.00
2017-11-22T08:38:58.815Z,1684.00
2017-11-22T08:40:52.192Z,1648.00
2017-11-22T08:41:52.184Z,1684.00
2017-11-22T08:43:45.604Z,1648.00
2017-11-22T08:44:45.580Z,1648.00
2017-11-22T08:46:38.952Z,1676.00
2017-11-22T08:47:38.953Z,1728.00
2017-11-22T08:49:32.355Z,1816.00
2017-11-22T08:50:32.346Z,1844.00
2017-11-22T08:52:25.712Z,1916.00
2017-11-22T08:53:25.733Z,2052.00
2017-11-22T08:55:19.109Z,3080.00
2017-11-22T08:56:19.107Z,2668.00
2017-11-22T08:58:12.493Z,2408.00
2017-11-22T08:59:12.512Z,3164.00
2017-11-22T09:01:08.334Z,4896.00
2017-11-22T09:02:14.557Z,4588.00
2017-11-22T09:03:59.276Z,5148.00
2017-11-22T09:04:59.277Z,5012.00
2017-11-22T09:06:52.681Z,5392.00
2017-11-22T09:07:52.698Z,5104.00
2017-11-22T09:09:46.071Z,4224.00
2017-11-22T09:10:46.078Z,3836.00
2017-11-22T09:12:39.482Z,3272.00
2017-11-22T09:13:39.460Z,3156.00
2017-11-22T09:15:32.859Z,3032.00
2017-11-22T09:16:32.876Z,2780.00
2017-11-22T09:18:26.255Z,3384.00
2017-11-22T09:19:26.258Z,3656.00
2017-11-22T09:21:19.655Z,5284.00
2017-11-22T09:22:19.628Z,7884.00
2017-11-22T09:24:13.047Z,15104.00
2017-11-22T09:25:13.072Z,16128.00
2017-11-22T09:27:06.454Z,16992.00
2017-11-22T09:28:06.414Z,16736.00
2017-11-22T09:29:59.800Z,15968.00
2017-11-22T09:30:59.836Z,15552.00
2017-11-22T09:32:53.223Z,13984.00
2017-11-22T09:33:53.198Z,11440.00
2017-11-22T09:35:46.589Z,6140.00
2017-11-22T09:36:46.596Z,5944.00
2017-11-22T09:38:40.021Z,4872.00
2017-11-22T09:39:39.981Z,3580.00
2017-11-22T09:41:33.452Z,3052.00
2017-11-22T09:42:33.406Z,3604.00
2017-11-22T09:44:27.768Z,4852.00
2017-11-22T09:45:27.769Z,6140.00
2017-11-22T09:47:21.211Z,6552.00
2017-11-22T09:48:21.192Z,6116.00
2017-11-22T09:50:14.545Z,7336.00
2017-11-22T09:51:14.562Z,8468.00
2017-11-22T09:53:07.965Z,9992.00
2017-11-22T09:54:07.995Z,9108.00
2017-11-22T09:56:01.362Z,10932.00
2017-11-22T09:57:01.376Z,10328.00
2017-11-22T09:58:54.775Z,4656.00
2017-11-22T09:59:54.770Z,4644.00
2017-11-22T10:01:48.165Z,5972.00
2017-11-22T10:02:48.174Z,4280.00
2017-11-22T10:04:41.567Z,5084.00
2017-11-22T10:05:41.600Z,4328.00
2017-11-22T10:07:34.956Z,3748.00
2017-11-22T10:08:34.933Z,3956.00
2017-11-22T10:10:28.370Z,6020.00
2017-11-22T10:11:28.324Z,7628.00
2017-11-22T10:13:21.739Z,8016.00
2017-11-22T10:14:21.746Z,6320.00
2017-11-22T10:16:15.135Z,6784.00
2017-11-22T10:17:15.211Z,7164.00
2017-11-22T10:19:08.520Z,9140.00
2017-11-22T10:20:08.518Z,13528.00
2017-11-22T10:22:01.894Z,16640.00
2017-11-22T10:23:01.942Z,17664.00
2017-11-22T10:24:55.270Z,19904.00
2017-11-22T10:25:55.308Z,19936.00
2017-11-22T10:27:49.704Z,20128.00
2017-11-22T10:28:49.693Z,20160.00
2017-11-22T10:30:43.077Z,19840.00
2017-11-22T10:31:43.107Z,19712.00
2017-11-22T10:33:36.491Z,20736.00
2017-11-22T10:34:36.524Z,20800.00
2017-11-22T10:36:29.873Z,21152.00
2017-11-22T10:37:29.895Z,24512.00
2017-11-22T10:39:23.307Z,29920.00
2017-11-22T10:40:23.317Z,33152.00
2017-11-22T10:42:16.686Z,35424.00
2017-11-22T10:43:16.696Z,35744.00
2017-11-22T10:45:10.132Z,35520.00
2017-11-22T10:46:10.140Z,35520.00
2017-11-22T10:48:03.569Z,32160.00
2017-11-22T10:49:03.539Z,27296.00
2017-11-22T10:50:56.985Z,22560.00
2017-11-22T10:51:56.936Z,21344.00
2017-11-22T10:53:50.343Z,21216.00
2017-11-22T10:54:50.352Z,21920.00
2017-11-22T10:56:43.803Z,20448.00
2017-11-22T10:57:43.863Z,21536.00
2017-11-22T10:59:37.249Z,20992.00
2017-11-22T11:00:37.528Z,20832.00
2017-11-22T11:02:30.589Z,21664.00
2017-11-22T11:03:30.614Z,19168.00
2017-11-22T11:05:24.015Z,20736.00
2017-11-22T11:06:24.058Z,19168.00
2017-11-22T11:08:17.426Z,19488.00
2017-11-22T11:09:17.431Z,17504.00
2017-11-22T11:11:10.835Z,16672.00
2017-11-22T11:12:10.857Z,18304.00
2017-11-22T11:14:04.228Z,19200.00
2017-11-22T11:15:04.274Z,20800.00
2017-11-22T11:16:57.636Z,21216.00
2017-11-22T11:17:57.655Z,21696.00
2017-11-22T11:19:51.064Z,18368.00
2017-11-22T11:20:51.053Z,17088.00
2017-11-22T11:22:45.482Z,15136.00
2017-11-22T11:23:45.477Z,16768.00
2017-11-22T11:25:38.897Z,21536.00
2017-11-22T11:26:38.906Z,21248.00
2017-11-22T11:28:32.325Z,20000.00
2017-11-22T11:29:32.323Z,19776.00
2017-11-22T11:31:25.722Z,18976.00
2017-11-22T11:32:25.730Z,18112.00
2017-11-22T11:34:19.089Z,19104.00
2017-11-22T11:35:19.128Z,17536.00
2017-11-22T11:37:12.524Z,17088.00
2017-11-22T11:38:12.554Z,17344.00
2017-11-22T11:40:05.913Z,17024.00
2017-11-22T11:41:05.957Z,16672.00
2017-11-22T11:42:59.399Z,17024.00
2017-11-22T11:43:59.393Z,17056.00
2017-11-22T11:45:52.758Z,16608.00
2017-11-22T11:46:52.763Z,14336.00
2017-11-22T11:48:46.200Z,11464.00
2017-11-22T11:49:46.209Z,11892.00
2017-11-22T11:51:39.606Z,12996.00
2017-11-22T11:52:39.633Z,13328.00
2017-11-22T11:54:33.042Z,11656.00
2017-11-22T11:55:33.035Z,11560.00
2017-11-22T11:57:26.471Z,12380.00
2017-11-22T11:58:26.454Z,11332.00
2017-11-22T12:00:19.823Z,12012.00
2017-11-22T12:01:19.831Z,11796.00
2017-11-22T12:03:13.214Z,11356.00
2017-11-22T12:04:13.238Z,11368.00
2017-11-22T12:06:06.640Z,10580.00
2017-11-22T12:07:06.657Z,10196.00
2017-11-22T12:09:00.055Z,10164.00
2017-11-22T12:10:00.067Z,9644.00
2017-11-22T12:11:53.479Z,9280.00
2017-11-22T12:12:53.491Z,8908.00
2017-11-22T12:14:46.905Z,9196.00
2017-11-22T12:15:46.892Z,10356.00
2017-11-22T12:17:40.272Z,10296.00
2017-11-22T12:18:40.283Z,10572.00
2017-11-22T12:20:33.707Z,8832.00
2017-11-22T12:21:33.704Z,8704.00
2017-11-22T12:23:27.066Z,7956.00
2017-11-22T12:24:27.100Z,7716.00
2017-11-22T12:26:20.496Z,8216.00
2017-11-22T12:27:20.542Z,8156.00
2017-11-22T12:29:13.940Z,8776.00
2017-11-22T12:30:13.966Z,9000.00
2017-11-22T12:32:07.331Z,9620.00
2017-11-22T12:33:07.366Z,9120.00
2017-11-22T12:35:00.717Z,8788.00
2017-11-22T12:36:00.767Z,8684.00
2017-11-22T12:37:54.154Z,8088.00
2017-11-22T12:38:54.140Z,8064.00
2017-11-22T12:40:47.509Z,7576.00
2017-11-22T12:41:47.516Z,6864.00
2017-11-22T12:43:40.917Z,7368.00
2017-11-22T12:44:40.921Z,7488.00
2017-11-22T12:46:34.330Z,7680.00
2017-11-22T12:47:34.341Z,8024.00
2017-11-22T12:49:27.724Z,8280.00
2017-11-22T12:50:27.721Z,8328.00
2017-11-22T12:52:21.126Z,8316.00
2017-11-22T12:53:21.158Z,8168.00
2017-11-22T12:55:14.547Z,7852.00
2017-11-22T12:56:14.543Z,7724.00
2017-11-22T12:58:07.932Z,7408.00
2017-11-22T12:59:07.972Z,7224.00
2017-11-22T13:01:01.363Z,6764.00
2017-11-22T13:02:01.359Z,6496.00
2017-11-22T13:03:54.764Z,5932.00
2017-11-22T13:04:54.775Z,5740.00
2017-11-22T13:06:48.135Z,5232.00
2017-11-22T13:07:48.150Z,5060.00
2017-11-22T13:09:41.576Z,4920.00
2017-11-22T13:10:41.560Z,4860.00
2017-11-22T13:12:34.952Z,4620.00
2017-11-22T13:13:34.976Z,4468.00
2017-11-22T13:15:28.350Z,4224.00
2017-11-22T13:16:28.342Z,4112.00
2017-11-22T13:18:21.762Z,3932.00
2017-11-22T13:19:21.755Z,3856.00
2017-11-22T13:21:15.146Z,3716.00
2017-11-22T13:22:15.176Z,3644.00
2017-11-22T13:24:08.569Z,3516.00
2017-11-22T13:25:08.560Z,3456.00
2017-11-22T13:27:01.951Z,3320.00
2017-11-22T13:28:01.960Z,3256.00
2017-11-22T13:29:55.394Z,3188.00
2017-11-22T13:30:55.390Z,3176.00
2017-11-22T13:32:48.753Z,3152.00
2017-11-22T13:33:48.738Z,3112.00
2017-11-22T13:35:42.165Z,3000.00
2017-11-22T13:36:42.183Z,2940.00
2017-11-22T13:38:35.555Z,2840.00
2017-11-22T13:39:35.562Z,2780.00
2017-11-22T13:41:28.955Z,2660.00
2017-11-22T13:42:28.953Z,2624.00
2017-11-22T13:44:22.364Z,2584.00
2017-11-22T13:45:22.382Z,2552.00
2017-11-22T13:47:15.786Z,2460.00
2017-11-22T13:48:15.794Z,2436.00
2017-11-22T13:50:09.165Z,2404.00
2017-11-22T13:51:09.189Z,2380.00
2017-11-22T13:53:03.555Z,2344.00
2017-11-22T13:54:03.581Z,2320.00
2017-11-22T13:55:56.949Z,2252.00
2017-11-22T13:56:56.948Z,2208.00
2017-11-22T13:58:50.395Z,2140.00
2017-11-22T13:59:50.371Z,2104.00
2017-11-22T14:01:43.762Z,2040.00
2017-11-22T14:02:43.795Z,2000.00
2017-11-22T14:04:37.190Z,1936.00
2017-11-22T14:05:37.158Z,1900.00
2017-11-22T14:07:30.552Z,1824.00
2017-11-22T14:08:30.580Z,1788.00
2017-11-22T14:10:23.958Z,1720.00
2017-11-22T14:11:23.966Z,1708.00
2017-11-22T14:13:17.363Z,1660.00
2017-11-22T14:14:17.358Z,1636.00
2017-11-22T14:16:10.772Z,1584.00
2017-11-22T14:17:10.779Z,1556.00
2017-11-22T14:19:04.171Z,1500.00
2017-11-22T14:20:04.182Z,1472.00
2017-11-22T14:21:57.586Z,1424.00
2017-11-22T14:22:57.557Z,1416.00
2017-11-22T14:24:50.968Z,1420.00
2017-11-22T14:25:50.967Z,1416.00
2017-11-22T14:27:44.366Z,1420.00
2017-11-22T14:28:44.367Z,1408.00
2017-11-22T14:30:37.739Z,1352.00
2017-11-22T14:31:37.774Z,1340.00
2017-11-22T14:33:31.184Z,1320.00
2017-11-22T14:34:31.166Z,1320.00
2017-11-22T14:36:24.554Z,1344.00
2017-11-22T14:37:24.578Z,1376.00
2017-11-22T14:39:17.940Z,1416.00
2017-11-22T14:40:17.963Z,1404.00
2017-11-22T14:42:11.318Z,1336.00
2017-11-22T14:43:11.365Z,1292.00
2017-11-22T14:45:04.716Z,1240.00
2017-11-22T14:46:04.743Z,1208.00
2017-11-22T14:47:58.113Z,1128.00
2017-11-22T14:48:58.134Z,1088.00
2017-11-22T14:50:51.528Z,1008.00
2017-11-22T14:51:51.535Z,976.00
2017-11-22T14:53:44.927Z,944.00
2017-11-22T14:54:44.948Z,928.00
2017-11-22T14:56:38.315Z,892.00
2017-11-22T14:57:38.346Z,876.00
2017-11-22T14:59:31.719Z,836.00
2017-11-22T15:00:31.721Z,816.00
2017-11-22T15:02:25.092Z,780.00
2017-11-22T15:03:25.113Z,760.00
2017-11-22T15:05:18.514Z,728.00
2017-11-22T15:06:18.510Z,712.00
2017-11-22T15:08:11.882Z,676.00
2017-11-22T15:09:12.086Z,660.00
2017-11-22T15:11:05.335Z,628.00
2017-11-22T15:12:05.328Z,608.00
2017-11-22T15:13:59.180Z,556.00
2017-11-22T15:14:59.042Z,524.00
2017-11-22T15:16:53.207Z,480.00
2017-11-22T15:17:53.176Z,452.00
2017-11-22T15:19:46.524Z,412.00
2017-11-22T15:20:46.649Z,388.00
2017-11-22T15:22:40.121Z,356.00
2017-11-22T15:23:41.568Z,340.00
2017-11-22T15:25:36.694Z,300.00
2017-11-22T15:26:36.399Z,280.00
2017-11-22T15:28:29.846Z,252.00
2017-11-22T15:29:29.739Z,236.00
2017-11-22T15:31:23.132Z,212.00
2017-11-22T15:32:23.138Z,196.00
2017-11-22T15:34:16.564Z,168.00
2017-11-22T15:35:16.524Z,152.00
2017-11-22T15:37:09.992Z,124.00
2017-11-22T15:38:09.939Z,116.00
2017-11-22T15:40:03.213Z,96.00
2017-11-22T15:41:03.224Z,92.00
2017-11-22T15:42:56.657Z,76.00
2017-11-22T15:43:56.656Z,68.00
2017-11-22T15:45:50.005Z,56.00
2017-11-22T15:46:50.035Z,48.00
2017-11-22T15:48:43.430Z,36.00
2017-11-22T15:49:43.438Z,32.00
2017-11-22T15:51:36.888Z,20.00
2017-11-22T15:52:36.849Z,20.00
2017-11-22T15:54:30.205Z,16.00
2017-11-22T15:55:30.189Z,12.00
2017-11-22T15:57:23.655Z,8.00
2017-11-22T15:58:23.643Z,8.00
2017-11-22T16:00:17.006Z,4.00
2017-11-22T16:01:16.992Z,4.00
2017-11-22T16:03:10.380Z,0.00
2017-11-22T16:04:10.447Z,4.00
2017-11-22T16:06:03.813Z,4.00
2017-11-22T16:07:03.821Z,0.00
2017-11-22T16:08:57.255Z,0.00
2017-11-22T16:09:57.300Z,4.00
2017-11-22T16:11:50.614Z,0.00
2017-11-22T16:12:50.597Z,0.00
2017-11-22T16:14:44.069Z,0.00
2017-11-22T16:15:43.972Z,0.00
2017-11-22T16:17:37.384Z,0.00
2017-11-22T16:18:37.394Z,0.00
2017-11-22T16:20:30.781Z,0.00
2017-11-22T16:21:30.780Z,0.00
2017-11-22T16:23:23.975Z,0.00
2017-11-22T16:24:23.944Z,0.00
2017-11-22T16:26:17.319Z,0.00
2017-11-22T16:27:17.337Z,0.00
2017-11-22T16:29:12.976Z,0.00
2017-11-22T16:30:12.983Z,0.00
2017-11-22T16:32:06.377Z,0.00
2017-11-22T16:33:06.404Z,0.00
2017-11-22T16:34:59.801Z,0.00
2017-11-22T16:35:59.774Z,0.00
2017-11-22T16:37:53.151Z,0.00
2017-11-22T16:40:06.629Z,0.00
2017-11-22T16:41:07.561Z,0.00
2017-11-22T16:42:59.933Z,0.00
2017-11-22T16:43:59.996Z,0.00
2017-11-22T16:45:54.997Z,0.00
2017-11-22T16:46:53.349Z,0.00
2017-11-22T16:48:46.734Z,0.00
2017-11-22T16:49:46.777Z,0.00
2017-11-22T16:51:40.177Z,0.00
2017-11-22T16:52:40.161Z,0.00
2017-11-22T16:54:33.566Z,0.00
2017-11-22T16:55:33.530Z,0.00
2017-11-22T16:57:26.943Z,0.00
2017-11-22T16:58:26.940Z,0.00
2017-11-22T17:00:20.321Z,0.00
2017-11-22T17:01:20.348Z,0.00
2017-11-22T17:03:13.767Z,0.00
2017-11-22T17:04:13.770Z,0.00
2017-11-22T17:06:07.166Z,0.00
2017-11-22T17:07:07.148Z,0.00
2017-11-22T17:09:00.557Z,0.00
2017-11-22T17:10:00.542Z,0.00
2017-11-22T17:11:54.000Z,0.00
2017-11-22T17:12:53.973Z,0.00
2017-11-22T17:14:47.322Z,0.00
2017-11-22T17:15:47.364Z,0.00
2017-11-22T17:17:40.727Z,0.00
2017-11-22T17:18:40.754Z,0.00
2017-11-22T17:20:34.092Z,0.00
2017-11-22T17:21:34.115Z,0.00
2017-11-22T17:23:27.499Z,0.00
2017-11-22T17:24:27.516Z,0.00
2017-11-22T17:26:20.897Z,0.00
2017-11-22T17:27:20.907Z,0.00
2017-11-22T17:29:14.290Z,0.00
2017-11-22T17:30:14.290Z,0.00
2017-11-22T17:32:07.665Z,0.00
2017-11-22T17:33:07.697Z,0.00
2017-11-22T17:35:01.088Z,0.00
2017-11-22T17:36:01.204Z,0.00
2017-11-22T17:37:54.429Z,0.00
2017-11-22T17:38:54.486Z,0.00
2017-11-22T17:40:47.905Z,0.00
2017-11-22T17:41:47.865Z,0.00
2017-11-22T17:43:41.330Z,0.00
2017-11-22T17:44:41.326Z,0.00
2017-11-22T17:46:34.642Z,0.00
2017-11-22T17:47:34.678Z,0.00
2017-11-22T17:49:28.041Z,0.00
2017-11-22T17:50:28.029Z,0.00
2017-11-22T17:52:21.426Z,0.00
2017-11-22T17:53:21.417Z,0.00
2017-11-22T17:55:14.837Z,0.00
2017-11-22T17:56:14.820Z,0.00
2017-11-22T17:58:08.205Z,0.00
2017-11-22T17:59:08.217Z,0.00
2017-11-22T18:01:01.606Z,0.00
2017-11-22T18:02:01.596Z,0.00
2017-11-22T18:03:54.968Z,0.00
2017-11-22T18:04:54.972Z,0.00
2017-11-22T18:06:48.372Z,0.00
2017-11-22T18:07:48.365Z,0.00
2017-11-22T18:09:41.751Z,0.00
2017-11-22T18:10:41.750Z,0.00
2017-11-22T18:12:35.150Z,0.00
2017-11-22T18:13:35.159Z,0.00
2017-11-22T18:15:28.548Z,0.00
2017-11-22T18:16:28.512Z,0.00
2017-11-22T18:18:21.928Z,0.00